sensor_id;sensor_type;location;lat;lon;timestamp;pressure;altitude;pressure_sealevel;temperature;humidity
31346;BME280;21711;49.708;18.568;2023-01-16T00:01:57;96441.13;;;5.12;100.00
31346;BME280;21711;49.708;18.568;2023-01-16T00:04:24;96451.63;;;5.28;100.00
31346;BME280;21711;49.708;18.568;2023-01-16T00:06:52;96453.66;;;5.10;100.00
31346;BME280;21711;49.708;18.568;2023-01-16T00:09:19;96456.06;;;5.17;100.00
31346;BME280;21711;49.708;18.568;2023-01-16T00:11:47;96454.69;;;5.04;100.00
31346;BME280;21711;49.708;18.568;2023-01-16T00:14:14;96457.59;;;5.12;100.00
31346;BME280;21711;49.708;18.568;2023-01-16T00:16:41;96463.34;;;4.99;100.00
31346;BME280;21711;49.708;18.568;2023-01-16T00:19:09;96451.63;;;5.22;100.00
31346;BME280;21711;49.708;18.568;2023-01-16T00:21:36;96456.53;;;5.08;100.00
31346;BME280;21711;49.708;18.568;2023-01-16T00:24:04;96461.53;;;5.10;100.00
31346;BME280;21711;49.708;18.568;2023-01-16T00:26:33;96449.44;;;4.93;100.00
31346;BME280;21711;49.708;18.568;2023-01-16T00:29:00;96441.53;;;4.88;100.00
31346;BME280;21711;49.708;18.568;2023-01-16T00:31:29;96439.69;;;4.89;100.00
31346;BME280;21711;49.708;18.568;2023-01-16T00:33:56;96430.47;;;4.76;100.00
31346;BME280;21711;49.708;18.568;2023-01-16T00:36:24;96423.66;;;4.74;100.00
31346;BME280;21711;49.708;18.568;2023-01-16T00:38:51;96424.06;;;4.51;100.00
31346;BME280;21711;49.708;18.568;2023-01-16T00:41:18;96410.31;;;4.28;100.00
31346;BME280;21711;49.708;18.568;2023-01-16T00:43:45;96417.28;;;4.12;100.00
31346;BME280;21711;49.708;18.568;2023-01-16T00:46:13;96410.69;;;4.04;100.00
31346;BME280;21711;49.708;18.568;2023-01-16T00:48:40;96409.38;;;4.01;100.00
31346;BME280;21711;49.708;18.568;2023-01-16T00:51:07;96413.06;;;4.05;100.00
31346;BME280;21711;49.708;18.568;2023-01-16T00:53:34;96404.56;;;3.88;100.00
31346;BME280;21711;49.708;18.568;2023-01-16T00:56:01;96411.44;;;3.99;100.00
31346;BME280;21711;49.708;18.568;2023-01-16T00:58:29;96419.50;;;3.92;100.00
31346;BME280;21711;49.708;18.568;2023-01-16T01:00:56;96410.53;;;3.83;100.00
31346;BME280;21711;49.708;18.568;2023-01-16T01:03:23;96411.72;;;3.70;100.00
31346;BME280;21711;49.708;18.568;2023-01-16T01:05:51;96419.41;;;3.82;100.00
31346;BME280;21711;49.708;18.568;2023-01-16T01:08:18;96418.06;;;3.79;100.00
31346;BME280;21711;49.708;18.568;2023-01-16T01:10:45;96422.03;;;3.82;100.00
31346;BME280;21711;49.708;18.568;2023-01-16T01:13:13;96423.91;;;3.87;100.00
31346;BME280;21711;49.708;18.568;2023-01-16T01:15:40;96435.69;;;3.89;100.00
31346;BME280;21711;49.708;18.568;2023-01-16T01:18:08;96445.88;;;3.86;100.00
31346;BME280;21711;49.708;18.568;2023-01-16T01:20:35;96443.53;;;3.89;100.00
31346;BME280;21711;49.708;18.568;2023-01-16T01:23:02;96435.09;;;3.82;100.00
31346;BME280;21711;49.708;18.568;2023-01-16T01:25:29;96425.22;;;3.89;100.00
31346;BME280;21711;49.708;18.568;2023-01-16T01:27:57;96421.25;;;3.54;100.00
31346;BME280;21711;49.708;18.568;2023-01-16T01:30:24;96419.19;;;3.56;100.00
31346;BME280;21711;49.708;18.568;2023-01-16T01:32:51;96412.63;;;3.53;100.00
31346;BME280;21711;49.708;18.568;2023-01-16T01:35:18;96401.91;;;3.50;100.00
31346;BME280;21711;49.708;18.568;2023-01-16T01:37:46;96392.16;;;3.45;100.00
31346;BME280;21711;49.708;18.568;2023-01-16T01:40:14;96384.81;;;3.42;100.00
31346;BME280;21711;49.708;18.568;2023-01-16T01:42:41;96386.44;;;3.48;100.00
31346;BME280;21711;49.708;18.568;2023-01-16T01:45:26;96393.50;;;3.48;100.00
31346;BME280;21711;49.708;18.568;2023-01-16T01:48:26;96391.97;;;3.52;100.00
31346;BME280;21711;49.708;18.568;2023-01-16T01:51:37;96389.78;;;3.44;100.00
31346;BME280;21711;49.708;18.568;2023-01-16T01:54:07;96396.72;;;3.55;100.00
31346;BME280;21711;49.708;18.568;2023-01-16T01:56:50;96398.81;;;3.58;100.00
31346;BME280;21711;49.708;18.568;2023-01-16T01:59:32;96394.06;;;3.50;100.00
31346;BME280;21711;49.708;18.568;2023-01-16T02:02:02;96393.72;;;3.46;100.00
31346;BME280;21711;49.708;18.568;2023-01-16T02:04:36;96397.63;;;3.44;100.00
31346;BME280;21711;49.708;18.568;2023-01-16T02:07:08;96397.59;;;3.38;100.00
31346;BME280;21711;49.708;18.568;2023-01-16T02:09:37;96395.50;;;3.35;100.00
31346;BME280;21711;49.708;18.568;2023-01-16T02:12:14;96400.09;;;3.28;100.00
31346;BME280;21711;49.708;18.568;2023-01-16T02:14:44;96399.78;;;3.19;100.00
31346;BME280;21711;49.708;18.568;2023-01-16T02:17:17;96390.59;;;3.17;100.00
31346;BME280;21711;49.708;18.568;2023-01-16T02:25:46;96386.34;;;3.10;100.00
31346;BME280;21711;49.708;18.568;2023-01-16T02:37:47;96378.19;;;2.79;100.00
31346;BME280;21711;49.708;18.568;2023-01-16T02:40:30;96369.31;;;2.80;100.00
31346;BME280;21711;49.708;18.568;2023-01-16T02:43:18;96367.22;;;2.82;100.00
31346;BME280;21711;49.708;18.568;2023-01-16T02:46:05;96366.69;;;2.80;100.00
31346;BME280;21711;49.708;18.568;2023-01-16T02:49:00;96362.69;;;2.72;100.00
31346;BME280;21711;49.708;18.568;2023-01-16T02:54:40;96340.38;;;2.59;100.00
31346;BME280;21711;49.708;18.568;2023-01-16T02:57:16;96342.53;;;2.68;100.00
31346;BME280;21711;49.708;18.568;2023-01-16T02:59:45;96338.91;;;2.69;100.00
31346;BME280;21711;49.708;18.568;2023-01-16T03:02:14;96337.50;;;2.83;100.00
31346;BME280;21711;49.708;18.568;2023-01-16T03:04:49;96328.72;;;2.95;100.00
31346;BME280;21711;49.708;18.568;2023-01-16T03:19:00;96330.84;;;3.25;100.00
31346;BME280;21711;49.708;18.568;2023-01-16T03:22:04;96329.88;;;3.37;100.00
31346;BME280;21711;49.708;18.568;2023-01-16T03:27:26;96334.56;;;3.35;100.00
31346;BME280;21711;49.708;18.568;2023-01-16T03:30:31;96332.25;;;3.38;100.00
31346;BME280;21711;49.708;18.568;2023-01-16T03:33:11;96335.97;;;3.48;100.00
31346;BME280;21711;49.708;18.568;2023-01-16T03:35:49;96325.13;;;3.28;100.00
31346;BME280;21711;49.708;18.568;2023-01-16T03:38:22;96325.16;;;3.34;100.00
31346;BME280;21711;49.708;18.568;2023-01-16T03:40:51;96326.56;;;3.47;100.00
31346;BME280;21711;49.708;18.568;2023-01-16T03:43:25;96317.19;;;3.51;100.00
31346;BME280;21711;49.708;18.568;2023-01-16T03:46:18;96323.19;;;3.51;98.89
31346;BME280;21711;49.708;18.568;2023-01-16T03:49:05;96317.41;;;3.44;98.50
31346;BME280;21711;49.708;18.568;2023-01-16T03:51:43;96317.47;;;3.54;100.00
31346;BME280;21711;49.708;18.568;2023-01-16T03:54:48;96315.63;;;3.50;98.79
31346;BME280;21711;49.708;18.568;2023-01-16T03:57:26;96302.00;;;3.48;97.81
31346;BME280;21711;49.708;18.568;2023-01-16T03:59:54;96302.84;;;3.53;97.68
31346;BME280;21711;49.708;18.568;2023-01-16T04:02:39;96299.75;;;3.62;100.00
31346;BME280;21711;49.708;18.568;2023-01-16T04:07:59;96281.50;;;3.67;98.42
31346;BME280;21711;49.708;18.568;2023-01-16T04:10:32;96280.16;;;3.64;100.00
31346;BME280;21711;49.708;18.568;2023-01-16T04:13:09;96267.97;;;3.42;100.00
31346;BME280;21711;49.708;18.568;2023-01-16T04:15:45;96261.63;;;3.33;100.00
31346;BME280;21711;49.708;18.568;2023-01-16T04:18:13;96271.09;;;3.39;100.00
31346;BME280;21711;49.708;18.568;2023-01-16T04:20:45;96263.47;;;3.33;100.00
31346;BME280;21711;49.708;18.568;2023-01-16T04:23:14;96261.41;;;3.35;100.00
31346;BME280;21711;49.708;18.568;2023-01-16T04:25:45;96247.81;;;3.33;96.95
31346;BME280;21711;49.708;18.568;2023-01-16T04:28:12;96252.31;;;3.42;95.95
31346;BME280;21711;49.708;18.568;2023-01-16T04:30:39;96237.88;;;3.35;94.58
31346;BME280;21711;49.708;18.568;2023-01-16T04:33:07;96230.59;;;3.42;92.97
31346;BME280;21711;49.708;18.568;2023-01-16T04:35:34;96236.72;;;3.63;94.33
31346;BME280;21711;49.708;18.568;2023-01-16T04:38:02;96238.13;;;3.71;98.95
31346;BME280;21711;49.708;18.568;2023-01-16T04:40:29;96231.84;;;3.77;98.16
31346;BME280;21711;49.708;18.568;2023-01-16T04:42:56;96220.06;;;3.70;98.08
31346;BME280;21711;49.708;18.568;2023-01-16T04:45:24;96234.72;;;3.76;97.65
31346;BME280;21711;49.708;18.568;2023-01-16T04:47:52;96228.41;;;3.72;100.00
31346;BME280;21711;49.708;18.568;2023-01-16T04:50:19;96225.81;;;3.72;98.22
31346;BME280;21711;49.708;18.568;2023-01-16T04:52:47;96220.56;;;3.72;94.59
31346;BME280;21711;49.708;18.568;2023-01-16T04:55:15;96219.28;;;3.74;97.50
31346;BME280;21711;49.708;18.568;2023-01-16T04:57:42;96224.25;;;3.76;94.71
31346;BME280;21711;49.708;18.568;2023-01-16T05:00:11;96224.75;;;3.73;98.93
31346;BME280;21711;49.708;18.568;2023-01-16T05:02:39;96230.53;;;3.75;96.88
31346;BME280;21711;49.708;18.568;2023-01-16T05:05:06;96236.22;;;3.61;97.53
31346;BME280;21711;49.708;18.568;2023-01-16T05:07:34;96221.00;;;3.53;95.80
31346;BME280;21711;49.708;18.568;2023-01-16T05:10:01;96219.44;;;3.57;96.83
31346;BME280;21711;49.708;18.568;2023-01-16T05:12:28;96218.44;;;3.63;97.04
31346;BME280;21711;49.708;18.568;2023-01-16T05:14:56;96213.69;;;3.55;100.00
31346;BME280;21711;49.708;18.568;2023-01-16T05:17:23;96203.47;;;3.48;97.17
31346;BME280;21711;49.708;18.568;2023-01-16T05:19:52;96200.91;;;3.59;100.00
31346;BME280;21711;49.708;18.568;2023-01-16T05:22:20;96204.84;;;3.61;99.38
31346;BME280;21711;49.708;18.568;2023-01-16T05:24:47;96200.69;;;3.65;98.73
31346;BME280;21711;49.708;18.568;2023-01-16T05:27:15;96186.31;;;3.68;100.00
31346;BME280;21711;49.708;18.568;2023-01-16T05:29:42;96186.59;;;3.72;98.11
31346;BME280;21711;49.708;18.568;2023-01-16T05:32:09;96191.50;;;3.58;95.04
31346;BME280;21711;49.708;18.568;2023-01-16T05:34:37;96180.84;;;3.70;95.32
31346;BME280;21711;49.708;18.568;2023-01-16T05:37:04;96180.88;;;3.80;97.90
31346;BME280;21711;49.708;18.568;2023-01-16T05:39:31;96181.66;;;3.80;98.94
31346;BME280;21711;49.708;18.568;2023-01-16T05:41:59;96173.75;;;3.70;99.79
31346;BME280;21711;49.708;18.568;2023-01-16T05:44:26;96168.81;;;3.68;94.42
31346;BME280;21711;49.708;18.568;2023-01-16T05:46:53;96175.66;;;3.80;96.89
31346;BME280;21711;49.708;18.568;2023-01-16T05:49:20;96167.50;;;3.71;94.66
31346;BME280;21711;49.708;18.568;2023-01-16T05:51:48;96167.22;;;3.73;94.25
31346;BME280;21711;49.708;18.568;2023-01-16T05:54:15;96161.75;;;3.74;97.06
31346;BME280;21711;49.708;18.568;2023-01-16T05:56:42;96161.53;;;3.81;96.56
31346;BME280;21711;49.708;18.568;2023-01-16T05:59:10;96154.75;;;3.85;97.70
31346;BME280;21711;49.708;18.568;2023-01-16T06:01:38;96155.47;;;3.75;98.60
31346;BME280;21711;49.708;18.568;2023-01-16T06:04:05;96151.03;;;3.71;98.93
31346;BME280;21711;49.708;18.568;2023-01-16T06:06:32;96154.09;;;3.57;98.98
31346;BME280;21711;49.708;18.568;2023-01-16T06:08:59;96153.84;;;3.59;100.00
31346;BME280;21711;49.708;18.568;2023-01-16T06:11:27;96152.53;;;3.61;100.00
31346;BME280;21711;49.708;18.568;2023-01-16T06:13:54;96144.19;;;3.59;98.60
31346;BME280;21711;49.708;18.568;2023-01-16T06:16:23;96143.69;;;3.67;98.54
31346;BME280;21711;49.708;18.568;2023-01-16T06:18:50;96143.94;;;3.66;100.00
31346;BME280;21711;49.708;18.568;2023-01-16T06:21:17;96132.69;;;3.60;100.00
31346;BME280;21711;49.708;18.568;2023-01-16T06:23:44;96134.75;;;3.58;100.00
31346;BME280;21711;49.708;18.568;2023-01-16T06:26:11;96126.16;;;3.68;100.00
31346;BME280;21711;49.708;18.568;2023-01-16T06:28:39;96131.44;;;3.78;100.00
31346;BME280;21711;49.708;18.568;2023-01-16T06:31:07;96129.06;;;3.77;100.00
31346;BME280;21711;49.708;18.568;2023-01-16T06:33:35;96122.31;;;3.86;100.00
31346;BME280;21711;49.708;18.568;2023-01-16T06:36:03;96123.38;;;4.01;100.00
31346;BME280;21711;49.708;18.568;2023-01-16T06:38:30;96118.13;;;3.90;100.00
31346;BME280;21711;49.708;18.568;2023-01-16T06:40:58;96122.59;;;3.95;99.10
31346;BME280;21711;49.708;18.568;2023-01-16T06:43:26;96124.91;;;3.86;95.73
31346;BME280;21711;49.708;18.568;2023-01-16T06:45:54;96117.91;;;3.97;100.00
31346;BME280;21711;49.708;18.568;2023-01-16T06:48:22;96132.84;;;4.07;100.00
31346;BME280;21711;49.708;18.568;2023-01-16T06:50:50;96121.28;;;3.92;96.49
31346;BME280;21711;49.708;18.568;2023-01-16T06:53:18;96121.31;;;3.98;94.05
31346;BME280;21711;49.708;18.568;2023-01-16T06:55:46;96120.50;;;3.92;94.20
31346;BME280;21711;49.708;18.568;2023-01-16T06:58:13;96115.00;;;3.88;95.86
31346;BME280;21711;49.708;18.568;2023-01-16T07:00:40;96111.09;;;3.96;97.62
31346;BME280;21711;49.708;18.568;2023-01-16T07:03:09;96113.22;;;4.04;93.37
31346;BME280;21711;49.708;18.568;2023-01-16T07:05:36;96118.47;;;4.20;97.28
31346;BME280;21711;49.708;18.568;2023-01-16T07:08:04;96110.88;;;4.18;96.79
31346;BME280;21711;49.708;18.568;2023-01-16T07:10:31;96110.63;;;4.30;99.20
31346;BME280;21711;49.708;18.568;2023-01-16T07:12:58;96112.44;;;4.25;91.59
31346;BME280;21711;49.708;18.568;2023-01-16T07:15:26;96107.50;;;4.33;93.56
31346;BME280;21711;49.708;18.568;2023-01-16T07:18:14;96114.84;;;4.47;95.57
31346;BME280;21711;49.708;18.568;2023-01-16T07:21:04;96105.16;;;4.53;94.93
31346;BME280;21711;49.708;18.568;2023-01-16T07:24:07;96103.56;;;4.62;96.79
31346;BME280;21711;49.708;18.568;2023-01-16T07:26:40;96103.06;;;4.55;94.91
31346;BME280;21711;49.708;18.568;2023-01-16T07:29:09;96104.59;;;4.25;95.40
31346;BME280;21711;49.708;18.568;2023-01-16T07:31:37;96098.59;;;4.14;98.03
31346;BME280;21711;49.708;18.568;2023-01-16T07:34:05;96092.28;;;3.99;100.00
31346;BME280;21711;49.708;18.568;2023-01-16T07:36:32;96084.38;;;3.94;100.00
31346;BME280;21711;49.708;18.568;2023-01-16T07:38:59;96074.22;;;4.08;100.00
31346;BME280;21711;49.708;18.568;2023-01-16T07:41:26;96078.91;;;4.01;100.00
31346;BME280;21711;49.708;18.568;2023-01-16T07:43:53;96063.25;;;4.11;100.00
31346;BME280;21711;49.708;18.568;2023-01-16T07:46:21;96061.41;;;4.22;100.00
31346;BME280;21711;49.708;18.568;2023-01-16T07:48:48;96062.22;;;4.28;100.00
31346;BME280;21711;49.708;18.568;2023-01-16T07:51:17;96057.22;;;4.31;100.00
31346;BME280;21711;49.708;18.568;2023-01-16T07:53:44;96055.41;;;4.37;100.00
31346;BME280;21711;49.708;18.568;2023-01-16T07:56:12;96053.03;;;4.36;100.00
31346;BME280;21711;49.708;18.568;2023-01-16T07:58:39;96047.31;;;4.28;100.00
31346;BME280;21711;49.708;18.568;2023-01-16T08:01:09;96042.84;;;4.29;100.00
31346;BME280;21711;49.708;18.568;2023-01-16T08:03:37;96038.91;;;4.42;100.00
31346;BME280;21711;49.708;18.568;2023-01-16T08:06:05;96036.81;;;4.44;100.00
31346;BME280;21711;49.708;18.568;2023-01-16T08:08:33;96029.22;;;4.37;100.00
31346;BME280;21711;49.708;18.568;2023-01-16T08:11:01;96028.69;;;4.19;100.00
31346;BME280;21711;49.708;18.568;2023-01-16T08:13:51;96034.22;;;4.33;100.00
31346;BME280;21711;49.708;18.568;2023-01-16T08:16:18;96031.06;;;4.31;100.00
31346;BME280;21711;49.708;18.568;2023-01-16T08:18:46;96026.63;;;4.37;100.00
31346;BME280;21711;49.708;18.568;2023-01-16T08:21:16;96025.81;;;4.52;100.00
31346;BME280;21711;49.708;18.568;2023-01-16T08:23:44;96018.22;;;4.66;100.00
31346;BME280;21711;49.708;18.568;2023-01-16T08:26:12;96002.50;;;4.66;100.00
31346;BME280;21711;49.708;18.568;2023-01-16T08:28:40;96000.34;;;4.89;100.00
31346;BME280;21711;49.708;18.568;2023-01-16T08:31:11;95991.16;;;4.92;100.00
31346;BME280;21711;49.708;18.568;2023-01-16T08:33:42;95978.00;;;5.07;100.00
31346;BME280;21711;49.708;18.568;2023-01-16T08:36:11;95973.31;;;5.04;100.00
31346;BME280;21711;49.708;18.568;2023-01-16T08:38:39;95975.38;;;5.12;100.00
31346;BME280;21711;49.708;18.568;2023-01-16T08:41:07;95971.66;;;5.24;100.00
31346;BME280;21711;49.708;18.568;2023-01-16T08:43:54;95963.28;;;5.22;98.94
31346;BME280;21711;49.708;18.568;2023-01-16T08:46:40;95957.75;;;5.29;96.17
31346;BME280;21711;49.708;18.568;2023-01-16T08:49:27;95957.72;;;5.34;100.00
31346;BME280;21711;49.708;18.568;2023-01-16T08:52:15;95950.84;;;5.43;98.37
31346;BME280;21711;49.708;18.568;2023-01-16T08:54:42;95943.16;;;5.57;100.00
31346;BME280;21711;49.708;18.568;2023-01-16T08:57:10;95934.25;;;5.58;100.00
31346;BME280;21711;49.708;18.568;2023-01-16T08:59:37;95927.44;;;5.57;100.00
31346;BME280;21711;49.708;18.568;2023-01-16T09:02:05;95912.75;;;5.56;100.00
31346;BME280;21711;49.708;18.568;2023-01-16T09:04:35;95914.09;;;5.48;100.00
31346;BME280;21711;49.708;18.568;2023-01-16T09:07:03;95913.63;;;5.81;100.00
31346;BME280;21711;49.708;18.568;2023-01-16T09:09:30;95911.59;;;6.08;100.00
31346;BME280;21711;49.708;18.568;2023-01-16T09:11:57;95900.41;;;6.26;98.65
31346;BME280;21711;49.708;18.568;2023-01-16T09:14:43;95898.75;;;6.36;95.77
31346;BME280;21711;49.708;18.568;2023-01-16T09:17:10;95884.84;;;6.60;92.81
31346;BME280;21711;49.708;18.568;2023-01-16T09:19:38;95877.09;;;6.68;90.16
31346;BME280;21711;49.708;18.568;2023-01-16T09:22:05;95877.97;;;6.83;89.32
31346;BME280;21711;49.708;18.568;2023-01-16T09:24:33;95869.63;;;7.00;90.74
31346;BME280;21711;49.708;18.568;2023-01-16T09:27:02;95853.38;;;7.70;87.58
31346;BME280;21711;49.708;18.568;2023-01-16T09:29:30;95848.09;;;8.17;83.33
31346;BME280;21711;49.708;18.568;2023-01-16T09:31:58;95844.88;;;8.48;82.15
31346;BME280;21711;49.708;18.568;2023-01-16T09:34:26;95837.63;;;9.10;80.17
31346;BME280;21711;49.708;18.568;2023-01-16T09:36:53;95843.41;;;10.21;73.37
31346;BME280;21711;49.708;18.568;2023-01-16T09:39:20;95838.84;;;10.04;63.97
31346;BME280;21711;49.708;18.568;2023-01-16T09:45:13;95818.88;;;8.61;74.15
31346;BME280;21711;49.708;18.568;2023-01-16T09:47:45;95823.81;;;8.06;75.59
31346;BME280;21711;49.708;18.568;2023-01-16T09:50:32;95819.25;;;8.26;77.15
31346;BME280;21711;49.708;18.568;2023-01-16T09:53:04;95814.84;;;8.07;77.37
31346;BME280;21711;49.708;18.568;2023-01-16T09:55:52;95799.84;;;7.27;81.30
31346;BME280;21711;49.708;18.568;2023-01-16T09:58:47;95799.00;;;7.32;82.03
31346;BME280;21711;49.708;18.568;2023-01-16T10:01:33;95796.66;;;7.63;84.85
31346;BME280;21711;49.708;18.568;2023-01-16T10:04:23;95789.66;;;7.87;80.11
31346;BME280;21711;49.708;18.568;2023-01-16T10:10:48;95768.16;;;7.52;82.36
31346;BME280;21711;49.708;18.568;2023-01-16T10:13:33;95762.22;;;7.60;82.52
31346;BME280;21711;49.708;18.568;2023-01-16T10:22:23;95752.38;;;8.64;79.81
31346;BME280;21711;49.708;18.568;2023-01-16T10:28:55;95748.19;;;9.23;76.28
31346;BME280;21711;49.708;18.568;2023-01-16T10:31:40;95741.34;;;9.44;75.56
31346;BME280;21711;49.708;18.568;2023-01-16T10:34:15;95741.34;;;9.44;73.60
31346;BME280;21711;49.708;18.568;2023-01-16T10:36:50;95720.38;;;9.16;72.54
31346;BME280;21711;49.708;18.568;2023-01-16T10:39:20;95727.00;;;9.68;73.64
31346;BME280;21711;49.708;18.568;2023-01-16T10:41:52;95714.72;;;9.64;69.77
31346;BME280;21711;49.708;18.568;2023-01-16T10:47:50;95709.88;;;9.97;71.55
31346;BME280;21711;49.708;18.568;2023-01-16T10:50:37;95701.88;;;10.29;71.97
31346;BME280;21711;49.708;18.568;2023-01-16T10:53:06;95703.41;;;10.21;67.97
31346;BME280;21711;49.708;18.568;2023-01-16T10:55:39;95700.22;;;10.86;64.30
31346;BME280;21711;49.708;18.568;2023-01-16T10:58:36;95684.84;;;11.45;62.61
31346;BME280;21711;49.708;18.568;2023-01-16T11:01:17;95676.91;;;11.84;58.71
31346;BME280;21711;49.708;18.568;2023-01-16T11:03:58;95669.81;;;11.97;59.68
31346;BME280;21711;49.708;18.568;2023-01-16T11:06:30;95665.19;;;13.00;58.58
31346;BME280;21711;49.708;18.568;2023-01-16T11:11:42;95652.16;;;13.54;53.59
31346;BME280;21711;49.708;18.568;2023-01-16T11:14:39;95646.38;;;14.14;52.23
31346;BME280;21711;49.708;18.568;2023-01-16T11:17:37;95653.69;;;15.64;45.13
31346;BME280;21711;49.708;18.568;2023-01-16T11:20:32;95648.31;;;16.48;43.12
31346;BME280;21711;49.708;18.568;2023-01-16T11:23:20;95639.09;;;15.58;45.19
31346;BME280;21711;49.708;18.568;2023-01-16T11:25:52;95635.72;;;14.96;45.19
31346;BME280;21711;49.708;18.568;2023-01-16T11:28:28;95630.38;;;14.96;44.81
31346;BME280;21711;49.708;18.568;2023-01-16T11:31:18;95623.38;;;15.20;45.16
31346;BME280;21711;49.708;18.568;2023-01-16T11:33:53;95614.25;;;15.54;44.07
31346;BME280;21711;49.708;18.568;2023-01-16T11:36:24;95621.03;;;15.99;42.41
31346;BME280;21711;49.708;18.568;2023-01-16T11:38:53;95604.69;;;14.88;45.67
31346;BME280;21711;49.708;18.568;2023-01-16T11:41:33;95596.13;;;13.97;48.50
31346;BME280;21711;49.708;18.568;2023-01-16T11:44:21;95592.69;;;13.09;51.70
31346;BME280;21711;49.708;18.568;2023-01-16T11:47:17;95567.03;;;12.54;55.26
31346;BME280;21711;49.708;18.568;2023-01-16T11:49:48;95562.75;;;11.98;54.75
31346;BME280;21711;49.708;18.568;2023-01-16T11:52:21;95543.53;;;10.98;58.31
31346;BME280;21711;49.708;18.568;2023-01-16T11:55:01;95541.59;;;10.69;60.92
31346;BME280;21711;49.708;18.568;2023-01-16T12:01:39;95528.97;;;10.74;60.93
31346;BME280;21711;49.708;18.568;2023-01-16T12:09:28;95501.84;;;10.95;59.04
31346;BME280;21711;49.708;18.568;2023-01-16T12:15:33;95484.06;;;11.04;62.07
31346;BME280;21711;49.708;18.568;2023-01-16T12:21:00;95477.19;;;11.85;59.12
31346;BME280;21711;49.708;18.568;2023-01-16T12:33:26;95457.72;;;11.17;57.71
31346;BME280;21711;49.708;18.568;2023-01-16T12:36:13;95454.53;;;11.02;56.02
31346;BME280;21711;49.708;18.568;2023-01-16T12:39:19;95440.38;;;9.94;60.03
31346;BME280;21711;49.708;18.568;2023-01-16T12:48:01;95424.41;;;10.56;61.24
31346;BME280;21711;49.708;18.568;2023-01-16T12:59:40;95418.63;;;9.26;65.77
31346;BME280;21711;49.708;18.568;2023-01-16T13:04:51;95401.22;;;8.09;70.62
31346;BME280;21711;49.708;18.568;2023-01-16T13:07:22;95396.19;;;8.30;74.27
31346;BME280;21711;49.708;18.568;2023-01-16T13:10:13;95390.31;;;8.33;77.34
31346;BME280;21711;49.708;18.568;2023-01-16T13:13:13;95394.09;;;8.50;73.25
31346;BME280;21711;49.708;18.568;2023-01-16T13:19:03;95385.03;;;8.33;74.09
31346;BME280;21711;49.708;18.568;2023-01-16T13:21:45;95378.00;;;8.20;73.43
31346;BME280;21711;49.708;18.568;2023-01-16T13:24:29;95378.94;;;8.15;73.53
31346;BME280;21711;49.708;18.568;2023-01-16T13:27:02;95372.81;;;7.74;74.34
31346;BME280;21711;49.708;18.568;2023-01-16T13:30:01;95371.03;;;7.37;79.06
31346;BME280;21711;49.708;18.568;2023-01-16T13:32:42;95375.72;;;7.04;78.90
31346;BME280;21711;49.708;18.568;2023-01-16T13:43:31;95341.88;;;6.74;79.31
31346;BME280;21711;49.708;18.568;2023-01-16T13:46:32;95337.66;;;7.01;81.05
31346;BME280;21711;49.708;18.568;2023-01-16T13:49:02;95339.94;;;6.66;81.55
31346;BME280;21711;49.708;18.568;2023-01-16T13:51:30;95324.50;;;6.50;83.54
31346;BME280;21711;49.708;18.568;2023-01-16T13:54:00;95332.28;;;6.41;85.96
31346;BME280;21711;49.708;18.568;2023-01-16T13:56:32;95331.69;;;6.44;88.33
31346;BME280;21711;49.708;18.568;2023-01-16T13:59:16;95326.06;;;6.65;86.26
31346;BME280;21711;49.708;18.568;2023-01-16T14:06:55;95321.78;;;6.55;90.85
31346;BME280;21711;49.708;18.568;2023-01-16T14:10:15;95312.25;;;6.60;89.78
31346;BME280;21711;49.708;18.568;2023-01-16T14:13:21;95303.22;;;6.52;89.41
31346;BME280;21711;49.708;18.568;2023-01-16T14:16:01;95297.16;;;6.51;87.83
31346;BME280;21711;49.708;18.568;2023-01-16T14:19:21;95286.38;;;6.39;91.41
31346;BME280;21711;49.708;18.568;2023-01-16T14:21:49;95287.38;;;6.29;91.92
31346;BME280;21711;49.708;18.568;2023-01-16T14:24:48;95273.63;;;5.90;89.52
31346;BME280;21711;49.708;18.568;2023-01-16T14:27:29;95276.59;;;5.55;91.87
31346;BME280;21711;49.708;18.568;2023-01-16T14:30:23;95271.28;;;5.27;93.95
31346;BME280;21711;49.708;18.568;2023-01-16T14:32:58;95261.16;;;5.20;95.53
31346;BME280;21711;49.708;18.568;2023-01-16T14:35:31;95257.00;;;5.19;96.42
31346;BME280;21711;49.708;18.568;2023-01-16T14:38:15;95254.59;;;5.23;96.83
31346;BME280;21711;49.708;18.568;2023-01-16T14:41:14;95248.56;;;5.22;96.63
31346;BME280;21711;49.708;18.568;2023-01-16T14:44:14;95243.72;;;4.96;98.08
31346;BME280;21711;49.708;18.568;2023-01-16T14:47:11;95232.19;;;4.97;98.13
31346;BME280;21711;49.708;18.568;2023-01-16T14:50:17;95221.44;;;4.80;98.87
31346;BME280;21711;49.708;18.568;2023-01-16T14:56:14;95206.22;;;4.82;99.55
31346;BME280;21711;49.708;18.568;2023-01-16T14:58:52;95209.81;;;4.86;99.07
31346;BME280;21711;49.708;18.568;2023-01-16T15:01:29;95210.81;;;4.90;100.00
31346;BME280;21711;49.708;18.568;2023-01-16T15:04:19;95205.81;;;4.74;99.45
31346;BME280;21711;49.708;18.568;2023-01-16T15:06:55;95206.88;;;4.73;100.00
31346;BME280;21711;49.708;18.568;2023-01-16T15:09:28;95194.91;;;4.67;100.00
31346;BME280;21711;49.708;18.568;2023-01-16T15:12:01;95194.31;;;4.56;100.00
31346;BME280;21711;49.708;18.568;2023-01-16T15:14:29;95178.38;;;4.53;100.00
31346;BME280;21711;49.708;18.568;2023-01-16T15:23:00;95171.72;;;4.41;100.00
31346;BME280;21711;49.708;18.568;2023-01-16T15:31:32;95165.44;;;4.42;100.00
31346;BME280;21711;49.708;18.568;2023-01-16T15:39:30;95147.66;;;4.39;100.00
31346;BME280;21711;49.708;18.568;2023-01-16T15:42:26;95135.81;;;4.47;100.00
31346;BME280;21711;49.708;18.568;2023-01-16T15:45:26;95133.91;;;4.33;100.00
31346;BME280;21711;49.708;18.568;2023-01-16T15:48:37;95123.28;;;4.25;100.00
31346;BME280;21711;49.708;18.568;2023-01-16T15:51:11;95119.13;;;4.24;100.00
31346;BME280;21711;49.708;18.568;2023-01-16T15:53:45;95110.84;;;4.36;100.00